Time;durP1;ratioP1;P1;durP2;ratioP2;P2;SDS_P1;SDS_P2;PMS_P1;PMS_P2;Temp;Humidity;BMP_temperature;BMP_pressure;BME280_temperature;BME280_humidity;BME280_pressure;Samples;Min_cycle;Max_cycle;Signal;HPM_P1;HPM_P2
2022/01/30 00:00:02;;;;;;;7.23;2.40;;;6.20;99.90;;;;;;5134402;28;20833;-68
2022/01/30 00:02:51;;;;;;;4.90;0.80;;;6.20;99.90;;;;;;5133538;28;20417;-69
2022/01/30 00:05:38;;;;;;;3.80;0.80;;;6.20;99.90;;;;;;5133673;28;20843;-68
2022/01/30 00:08:25;;;;;;;5.47;1.63;;;6.10;99.90;;;;;;5134800;28;20812;-69
2022/01/30 00:11:16;;;;;;;3.60;1.03;;;6.10;99.90;;;;;;5139274;28;20424;-68
2022/01/30 00:14:06;;;;;;;2.63;1.63;;;6.20;99.90;;;;;;5133787;28;20413;-68
2022/01/30 00:16:59;;;;;;;10.13;1.90;;;6.20;99.90;;;;;;5132749;28;20448;-68
2022/01/30 00:19:54;;;;;;;0.60;0.60;;;6.20;99.90;;;;;;5125763;28;20461;-69
2022/01/30 00:22:47;;;;;;;0.73;0.53;;;6.20;99.90;;;;;;5113566;28;20793;-68
2022/01/30 00:25:45;;;;;;;3.70;2.00;;;6.10;99.90;;;;;;5113391;28;20434;-68
2022/01/30 00:28:33;;;;;;;6.63;1.53;;;6.00;99.90;;;;;;5112988;28;20449;-69
2022/01/30 00:31:21;;;;;;;2.00;0.60;;;5.90;99.90;;;;;;5113578;28;20426;-68
2022/01/30 00:34:08;;;;;;;7.83;3.03;;;5.70;99.90;;;;;;5113240;28;20418;-68
2022/01/30 00:36:56;;;;;;;3.80;1.27;;;5.60;99.90;;;;;;5113021;28;20499;-68
2022/01/30 00:39:43;;;;;;;2.70;0.77;;;5.50;99.90;;;;;;5112762;28;20461;-68
2022/01/30 00:42:30;;;;;;;6.43;1.67;;;5.50;99.90;;;;;;5112695;28;20512;-68
2022/01/30 00:45:17;;;;;;;2.43;1.10;;;5.50;99.90;;;;;;5113256;28;20478;-68
2022/01/30 00:48:05;;;;;;;1.87;0.70;;;5.60;99.90;;;;;;5113201;28;20429;-68
2022/01/30 00:50:53;;;;;;;0.40;0.40;;;5.70;99.90;;;;;;5112433;28;20784;-68
2022/01/30 00:53:41;;;;;;;4.50;0.87;;;5.70;99.90;;;;;;5113798;28;20417;-69
2022/01/30 00:56:28;;;;;;;1.27;0.80;;;5.70;99.90;;;;;;5113541;28;20472;-68
2022/01/30 00:59:14;;;;;;;10.10;1.47;;;5.80;99.90;;;;;;5113294;28;21029;-68
2022/01/30 01:02:01;;;;;;;1.13;0.80;;;6.00;99.90;;;;;;5118277;28;20422;-69
2022/01/30 01:04:49;;;;;;;3.73;1.27;;;6.20;99.90;;;;;;5116685;28;20937;-68
2022/01/30 01:07:40;;;;;;;1.03;0.93;;;6.30;99.90;;;;;;5117178;28;20444;-69
2022/01/30 01:10:35;;;;;;;2.97;1.97;;;6.30;99.90;;;;;;5116210;28;20417;-69
2022/01/30 01:25:42;;;;;;;8.83;2.50;;;6.20;99.90;;;;;;5143408;27;20493;-70
2022/01/30 01:28:29;;;;;;;3.27;1.23;;;6.20;99.90;;;;;;5139096;27;20437;-69
2022/01/30 01:31:17;;;;;;;2.53;1.27;;;6.30;99.90;;;;;;5144369;27;20452;-70
2022/01/30 01:34:18;;;;;;;4.70;1.10;;;6.20;99.90;;;;;;5136321;27;20429;-68
2022/01/30 01:37:09;;;;;;;3.03;0.90;;;6.30;99.90;;;;;;5136705;27;20714;-69
2022/01/30 01:39:56;;;;;;;6.90;2.27;;;6.20;99.90;;;;;;5136388;27;20464;-68
2022/01/30 01:42:44;;;;;;;0.50;0.50;;;6.40;99.90;;;;;;5135711;27;20934;-68
2022/01/30 01:45:35;;;;;;;5.10;1.00;;;6.50;99.90;;;;;;5136040;27;20417;-69
2022/01/30 01:48:22;;;;;;;4.10;1.30;;;6.50;99.90;;;;;;5136239;27;20525;-70
2022/01/30 01:51:16;;;;;;;4.97;1.00;;;6.60;99.90;;;;;;5141478;27;20771;-69
2022/01/30 01:54:03;;;;;;;3.50;1.17;;;6.60;99.90;;;;;;5140501;27;20435;-71
2022/01/30 01:56:50;;;;;;;2.50;1.10;;;6.70;99.90;;;;;;5142754;27;20444;-69
2022/01/30 01:59:38;;;;;;;7.93;1.37;;;6.60;99.90;;;;;;5141346;27;20492;-69
2022/01/30 02:02:26;;;;;;;3.40;1.10;;;6.80;99.90;;;;;;5144253;27;20456;-70
2022/01/30 02:05:13;;;;;;;6.43;1.40;;;6.80;99.90;;;;;;5142574;27;20425;-69
2022/01/30 02:11:09;;;;;;;10.03;1.87;;;6.70;99.90;;;;;;5135555;27;20412;-68
2022/01/30 02:26:17;;;;;;;6.03;1.37;;;6.40;99.90;;;;;;5114664;28;20797;-68
2022/01/30 02:29:04;;;;;;;3.30;1.37;;;6.40;99.90;;;;;;5114860;28;20431;-69
2022/01/30 02:31:55;;;;;;;5.63;2.20;;;6.40;99.90;;;;;;5120168;28;20417;-69
2022/01/30 02:34:42;;;;;;;2.23;0.93;;;6.40;99.90;;;;;;5125377;28;20414;-69
2022/01/30 02:37:29;;;;;;;3.77;1.00;;;6.40;99.90;;;;;;5128648;27;20452;-71
2022/01/30 02:40:17;;;;;;;0.70;0.60;;;6.20;99.90;;;;;;5143003;27;20452;-69
2022/01/30 02:43:06;;;;;;;2.10;1.00;;;6.10;99.90;;;;;;5136419;27;20450;-69
2022/01/30 02:46:04;;;;;;;7.33;1.83;;;6.10;99.90;;;;;;5135052;27;20416;-69
2022/01/30 02:48:54;;;;;;;4.07;1.00;;;6.20;99.90;;;;;;5134603;27;20505;-68
2022/01/30 02:51:47;;;;;;;5.30;1.67;;;6.20;99.90;;;;;;5134357;27;20424;-68
2022/01/30 02:54:34;;;;;;;1.33;1.20;;;6.40;99.90;;;;;;5134137;27;20464;-68
2022/01/30 02:57:22;;;;;;;7.30;1.47;;;6.40;99.90;;;;;;5133487;27;20468;-69
2022/01/30 03:00:11;;;;;;;1.73;0.87;;;6.40;99.90;;;;;;5133637;27;20548;-68
2022/01/30 03:02:57;;;;;;;10.20;2.37;;;6.40;99.90;;;;;;5133686;27;20889;-69
2022/01/30 03:05:44;;;;;;;6.27;1.73;;;6.40;99.90;;;;;;5133767;27;20436;-68
2022/01/30 03:08:31;;;;;;;3.03;1.53;;;6.40;99.90;;;;;;5133991;27;21037;-69
2022/01/30 03:11:18;;;;;;;1.77;1.13;;;6.40;99.90;;;;;;5134480;27;20508;-68
2022/01/30 03:14:07;;;;;;;7.37;1.83;;;6.40;99.90;;;;;;5133426;27;20469;-69
2022/01/30 03:16:54;;;;;;;12.27;0.90;;;6.40;99.90;;;;;;5133248;27;20501;-69
2022/01/30 03:19:41;;;;;;;11.20;2.80;;;5.80;99.90;;;;;;5132970;27;20460;-68
2022/01/30 03:22:28;;;;;;;2.47;1.20;;;5.50;99.90;;;;;;5134281;27;20433;-68
2022/01/30 03:25:15;;;;;;;5.03;2.97;;;5.30;99.90;;;;;;5133313;27;20436;-69
2022/01/30 03:28:04;;;;;;;15.67;1.53;;;5.30;99.90;;;;;;5133776;27;20828;-68
2022/01/30 03:30:56;;;;;;;2.13;1.10;;;5.30;99.90;;;;;;5133493;27;20425;-68
2022/01/30 03:33:43;;;;;;;5.93;1.47;;;5.30;99.90;;;;;;5134331;27;20516;-69
2022/01/30 03:36:30;;;;;;;4.40;1.50;;;5.40;99.90;;;;;;5133725;27;20447;-69
2022/01/30 03:39:17;;;;;;;0.60;0.60;;;5.50;99.90;;;;;;5133331;27;20540;-70
2022/01/30 03:42:05;;;;;;;24.83;2.30;;;5.70;99.90;;;;;;5148792;27;20428;-69
2022/01/30 03:44:52;;;;;;;0.70;0.70;;;5.80;99.90;;;;;;5148267;27;20420;-69
2022/01/30 03:47:40;;;;;;;5.40;1.47;;;5.90;99.90;;;;;;5149426;27;20432;-68
2022/01/30 03:50:27;;;;;;;8.97;1.50;;;5.90;99.90;;;;;;5149688;27;20425;-69
2022/01/30 03:53:14;;;;;;;3.70;1.37;;;5.90;99.90;;;;;;5137203;27;20452;-69
2022/01/30 03:56:01;;;;;;;0.50;0.50;;;5.90;99.90;;;;;;5134383;27;20940;-69
2022/01/30 03:58:48;;;;;;;6.53;0.90;;;5.90;99.90;;;;;;5133913;28;20427;-68
2022/01/30 04:01:35;;;;;;;4.07;1.10;;;5.80;99.90;;;;;;5139740;28;20420;-69
2022/01/30 04:04:23;;;;;;;4.47;1.20;;;5.70;99.90;;;;;;5137223;28;20424;-68
2022/01/30 04:07:11;;;;;;;4.10;0.70;;;5.70;99.90;;;;;;5134310;28;20436;-68
2022/01/30 04:09:59;;;;;;;1.50;0.83;;;5.60;99.90;;;;;;5133828;28;20440;-68
2022/01/30 04:12:46;;;;;;;2.47;0.63;;;5.60;99.90;;;;;;5132981;28;20420;-68
2022/01/30 04:15:34;;;;;;;2.40;1.37;;;5.60;99.90;;;;;;5132656;28;20503;-68
2022/01/30 04:18:21;;;;;;;2.00;0.70;;;5.70;99.90;;;;;;5133199;28;20967;-68
2022/01/30 04:21:10;;;;;;;2.00;0.90;;;5.70;99.90;;;;;;5113691;28;20460;-68
2022/01/30 04:23:57;;;;;;;3.27;2.13;;;5.60;99.90;;;;;;5114028;28;20436;-68
2022/01/30 04:26:44;;;;;;;3.13;0.83;;;5.40;99.90;;;;;;5112711;28;20488;-68
2022/01/30 04:29:31;;;;;;;3.13;1.00;;;5.20;99.90;;;;;;5113233;28;20942;-68
2022/01/30 04:32:19;;;;;;;10.07;1.50;;;5.10;99.90;;;;;;5113162;28;21016;-68
2022/01/30 04:35:12;;;;;;;1.73;1.00;;;4.90;99.90;;;;;;5113086;28;20846;-69
2022/01/30 04:38:11;;;;;;;1.90;1.13;;;4.90;99.90;;;;;;5114687;28;20976;-68
2022/01/30 04:41:22;;;;;;;0.80;0.80;;;4.90;99.90;;;;;;5115795;28;20471;-67
2022/01/30 04:53:53;;;;;;;9.43;1.67;;;5.00;99.90;;;;;;5116611;28;20409;-68
2022/01/30 04:56:56;;;;;;;1.30;1.00;;;5.00;99.90;;;;;;5117406;27;20506;-68
2022/01/30 05:00:03;;;;;;;1.50;0.73;;;5.10;99.90;;;;;;5116411;28;20483;-67
2022/01/30 05:02:58;;;;;;;8.90;1.27;;;5.10;99.90;;;;;;5116762;28;20417;-68
2022/01/30 05:05:58;;;;;;;2.73;1.27;;;5.10;99.90;;;;;;5117240;28;20444;-68
2022/01/30 05:08:46;;;;;;;1.87;0.90;;;5.20;99.90;;;;;;5116153;28;20467;-69
2022/01/30 05:11:33;;;;;;;3.43;1.63;;;5.30;99.90;;;;;;5116986;28;20454;-69
2022/01/30 05:14:24;;;;;;;10.30;2.23;;;5.30;99.90;;;;;;5127776;28;20445;-68
2022/01/30 05:17:11;;;;;;;2.97;1.73;;;5.40;99.90;;;;;;5128795;28;20445;-68
2022/01/30 05:19:59;;;;;;;0.50;0.50;;;5.50;99.90;;;;;;5129791;27;21033;-68
2022/01/30 05:22:46;;;;;;;1.23;0.70;;;5.50;99.90;;;;;;5142524;27;20437;-68
2022/01/30 05:25:36;;;;;;;0.80;0.80;;;5.50;99.90;;;;;;5136417;27;20486;-68
2022/01/30 05:28:24;;;;;;;0.70;0.70;;;5.50;99.90;;;;;;5136539;27;20584;-68
2022/01/30 05:31:11;;;;;;;4.17;1.10;;;5.60;99.90;;;;;;5135656;27;20501;-67
2022/01/30 05:33:59;;;;;;;0.80;0.80;;;5.60;99.90;;;;;;5136530;27;20526;-68
2022/01/30 05:36:46;;;;;;;5.67;1.60;;;5.60;99.90;;;;;;5135469;27;20479;-69
2022/01/30 05:39:33;;;;;;;4.53;1.73;;;5.50;99.90;;;;;;5135194;27;20506;-68
2022/01/30 05:42:24;;;;;;;1.33;1.00;;;5.60;99.90;;;;;;5136347;27;20417;-68
2022/01/30 05:45:17;;;;;;;8.03;2.00;;;5.60;99.90;;;;;;5137315;27;20431;-70
2022/01/30 05:48:10;;;;;;;6.07;3.27;;;5.60;99.90;;;;;;5138948;27;20931;-68
2022/01/30 05:50:57;;;;;;;1.23;0.90;;;5.60;99.90;;;;;;5135925;27;20436;-71
2022/01/30 05:53:44;;;;;;;5.13;1.50;;;5.70;99.90;;;;;;5138193;27;20424;-69
2022/01/30 05:56:31;;;;;;;11.80;3.50;;;5.70;99.90;;;;;;5137060;27;20523;-69
2022/01/30 05:59:19;;;;;;;6.90;1.27;;;5.70;99.90;;;;;;5135064;27;20425;-70
2022/01/30 06:02:06;;;;;;;13.63;2.93;;;5.70;99.90;;;;;;5135763;27;20948;-69
2022/01/30 06:04:53;;;;;;;5.50;1.37;;;5.70;99.90;;;;;;5137237;27;20421;-68
2022/01/30 06:07:47;;;;;;;2.93;1.20;;;5.70;99.90;;;;;;5137802;27;20452;-67
2022/01/30 06:10:34;;;;;;;9.83;1.40;;;5.70;99.90;;;;;;5141759;27;20421;-69
2022/01/30 06:13:21;;;;;;;3.93;1.07;;;5.70;99.90;;;;;;5142320;27;20424;-67
2022/01/30 06:16:09;;;;;;;0.90;0.67;;;5.70;99.90;;;;;;5139823;27;20448;-69
2022/01/30 06:18:56;;;;;;;1.50;0.80;;;5.70;99.90;;;;;;5137520;27;20441;-69
2022/01/30 06:21:43;;;;;;;2.10;0.93;;;5.70;99.90;;;;;;5118486;28;20425;-69
2022/01/30 06:24:30;;;;;;;8.73;0.70;;;5.90;99.90;;;;;;5118607;28;20475;-69
2022/01/30 06:27:17;;;;;;;3.77;1.37;;;5.70;99.90;;;;;;5118037;28;20597;-68
2022/01/30 06:30:05;;;;;;;4.73;1.40;;;5.70;99.90;;;;;;5115631;28;20460;-69
2022/01/30 06:32:53;;;;;;;1.50;0.83;;;5.70;99.90;;;;;;5114839;28;20429;-69
2022/01/30 06:35:40;;;;;;;4.33;1.23;;;5.60;99.90;;;;;;5121333;28;20449;-70
2022/01/30 06:38:27;;;;;;;3.63;1.40;;;5.70;99.90;;;;;;5118867;28;21032;-68
2022/01/30 06:41:14;;;;;;;8.17;2.30;;;5.70;99.90;;;;;;5115062;28;20461;-69
2022/01/30 06:44:01;;;;;;;5.20;1.53;;;5.40;99.90;;;;;;5118732;27;20507;-68
2022/01/30 06:46:48;;;;;;;7.80;2.27;;;5.50;99.90;;;;;;5118673;28;20449;-69
2022/01/30 06:49:36;;;;;;;1.57;1.20;;;5.50;99.90;;;;;;5118266;28;20546;-69
2022/01/30 06:52:23;;;;;;;1.13;0.80;;;5.60;99.90;;;;;;5118463;28;20483;-69
2022/01/30 06:55:10;;;;;;;3.27;1.50;;;5.70;99.90;;;;;;5114494;28;20532;-68
2022/01/30 06:57:57;;;;;;;2.33;0.83;;;5.80;99.90;;;;;;5119171;28;20543;-69
2022/01/30 07:00:43;;;;;;;3.50;1.23;;;5.80;99.90;;;;;;5113014;28;20522;-68
2022/01/30 07:03:30;;;;;;;6.20;1.60;;;5.80;99.90;;;;;;5113791;28;20767;-68
2022/01/30 07:06:19;;;;;;;2.10;1.80;;;5.90;99.90;;;;;;5113833;28;20417;-68
2022/01/30 07:09:05;;;;;;;0.50;0.50;;;5.80;99.90;;;;;;5113701;28;20421;-68
2022/01/30 07:11:52;;;;;;;0.63;0.63;;;5.70;99.90;;;;;;5113506;28;20475;-69
2022/01/30 07:14:39;;;;;;;5.80;1.27;;;5.70;99.90;;;;;;5113778;28;20483;-67
2022/01/30 07:17:26;;;;;;;2.40;1.20;;;5.80;99.90;;;;;;5113748;28;20501;-67
2022/01/30 07:20:13;;;;;;;3.67;0.93;;;5.80;99.90;;;;;;5124737;27;20561;-68
2022/01/30 07:23:01;;;;;;;15.70;3.77;;;5.80;99.90;;;;;;5133959;27;20797;-67
2022/01/30 07:25:48;;;;;;;1.70;0.80;;;5.90;99.90;;;;;;5134191;27;20420;-68
2022/01/30 07:28:35;;;;;;;2.30;1.50;;;5.90;99.90;;;;;;5133696;27;20452;-71
2022/01/30 07:31:22;;;;;;;19.90;1.40;;;5.80;99.90;;;;;;5136817;27;20413;-68
2022/01/30 07:34:09;;;;;;;1.13;0.80;;;5.90;99.90;;;;;;5134125;27;20473;-67
2022/01/30 07:36:57;;;;;;;5.30;2.50;;;5.90;99.90;;;;;;5134620;27;20459;-67
2022/01/30 07:39:46;;;;;;;2.27;1.30;;;5.90;99.90;;;;;;5133840;27;20424;-67
2022/01/30 07:42:33;;;;;;;0.70;0.70;;;5.90;99.90;;;;;;5140089;27;20432;-68
2022/01/30 07:45:20;;;;;;;2.13;0.90;;;5.90;99.90;;;;;;5149504;27;20447;-68
2022/01/30 07:48:07;;;;;;;10.70;2.10;;;5.90;99.90;;;;;;5148246;27;20445;-68
2022/01/30 07:50:54;;;;;;;0.70;0.60;;;5.90;99.90;;;;;;5146181;27;20415;-68
2022/01/30 07:53:41;;;;;;;2.90;1.27;;;5.90;99.90;;;;;;5147708;27;20424;-68
2022/01/30 07:56:29;;;;;;;0.87;0.83;;;5.90;99.90;;;;;;5145952;27;20444;-69
2022/01/30 07:59:16;;;;;;;3.57;0.90;;;5.90;99.90;;;;;;5148154;27;20469;-69
2022/01/30 08:02:03;;;;;;;5.10;1.73;;;5.90;99.90;;;;;;5148070;28;20565;-69
2022/01/30 08:04:52;;;;;;;4.67;1.83;;;6.00;99.90;;;;;;5148108;28;20570;-69
2022/01/30 08:07:39;;;;;;;13.00;2.50;;;6.10;99.90;;;;;;5148375;28;20441;-69
2022/01/30 08:10:26;;;;;;;8.50;1.83;;;6.10;99.90;;;;;;5148021;28;20420;-69
2022/01/30 08:13:15;;;;;;;4.47;1.37;;;6.20;99.90;;;;;;5153343;27;20428;-70
2022/01/30 08:16:03;;;;;;;2.40;0.97;;;6.20;99.90;;;;;;5155164;27;20432;-69
2022/01/30 08:18:50;;;;;;;1.43;1.33;;;6.20;99.90;;;;;;5145832;27;20424;-69
2022/01/30 08:21:37;;;;;;;3.57;1.43;;;6.30;99.90;;;;;;5121383;27;20842;-69
2022/01/30 08:24:24;;;;;;;4.60;2.10;;;6.20;99.90;;;;;;5118764;28;20804;-69
2022/01/30 08:27:11;;;;;;;5.97;2.83;;;6.40;99.90;;;;;;5118228;28;20531;-69
2022/01/30 08:29:59;;;;;;;6.37;1.60;;;6.40;99.90;;;;;;5118211;28;20432;-69
2022/01/30 08:32:48;;;;;;;9.40;2.13;;;6.50;99.90;;;;;;5116164;28;20471;-69
2022/01/30 08:35:35;;;;;;;1.30;1.07;;;6.40;99.90;;;;;;5117191;28;20950;-67
2022/01/30 08:38:22;;;;;;;5.10;2.30;;;6.40;99.90;;;;;;5116579;28;20448;-66
2022/01/30 08:41:09;;;;;;;8.40;3.17;;;6.50;99.90;;;;;;5116692;28;20459;-67
2022/01/30 08:43:56;;;;;;;7.67;1.50;;;6.40;99.90;;;;;;5117896;28;20428;-68
2022/01/30 08:46:44;;;;;;;5.03;1.90;;;6.50;99.90;;;;;;5116727;28;20445;-68
2022/01/30 08:49:31;;;;;;;0.90;0.90;;;6.50;99.90;;;;;;5116081;28;20429;-67
2022/01/30 08:52:19;;;;;;;2.60;1.47;;;6.50;99.90;;;;;;5116161;28;20413;-68
2022/01/30 08:55:08;;;;;;;3.47;1.23;;;6.40;99.90;;;;;;5116808;28;20524;-68
2022/01/30 08:57:55;;;;;;;15.43;3.33;;;6.50;99.90;;;;;;5115098;28;20441;-68
2022/01/30 09:00:44;;;;;;;0.83;0.70;;;6.50;99.90;;;;;;5115754;28;20500;-68
2022/01/30 09:03:32;;;;;;;0.97;0.87;;;6.50;99.90;;;;;;5117385;27;20417;-67
2022/01/30 09:06:19;;;;;;;2.37;1.40;;;6.60;99.90;;;;;;5117354;27;20459;-67
2022/01/30 09:09:06;;;;;;;2.93;0.87;;;6.60;99.90;;;;;;5115815;28;20746;-67
2022/01/30 09:11:53;;;;;;;16.07;1.43;;;6.60;99.90;;;;;;5115855;28;20937;-67
2022/01/30 09:14:42;;;;;;;1.10;0.60;;;6.50;99.90;;;;;;5116953;28;20425;-68
2022/01/30 09:17:29;;;;;;;15.47;2.40;;;6.50;99.90;;;;;;5116707;28;20449;-67
2022/01/30 09:20:17;;;;;;;10.47;1.33;;;6.50;99.90;;;;;;5116387;28;20797;-67
2022/01/30 09:23:04;;;;;;;1.63;0.70;;;6.50;99.90;;;;;;5115322;28;20422;-67
2022/01/30 09:25:51;;;;;;;9.40;2.23;;;6.50;99.90;;;;;;5116977;27;20424;-68
2022/01/30 09:28:38;;;;;;;5.43;2.03;;;6.50;99.90;;;;;;5117273;28;20422;-67
2022/01/30 09:31:25;;;;;;;2.50;0.90;;;6.50;99.90;;;;;;5115572;28;20499;-66
2022/01/30 09:34:12;;;;;;;7.80;1.83;;;6.50;99.90;;;;;;5115019;28;20418;-68
2022/01/30 09:37:00;;;;;;;1.07;0.93;;;6.50;99.90;;;;;;5115227;28;20448;-67
2022/01/30 09:39:47;;;;;;;7.50;2.67;;;6.60;99.90;;;;;;5116448;28;20432;-68
2022/01/30 09:42:34;;;;;;;2.67;1.67;;;6.60;99.90;;;;;;5115367;28;20931;-67
2022/01/30 09:45:22;;;;;;;2.30;1.10;;;6.50;99.90;;;;;;5115411;28;20474;-67
2022/01/30 09:48:10;;;;;;;1.27;0.80;;;6.60;99.90;;;;;;5115580;28;20448;-67
2022/01/30 09:51:00;;;;;;;11.43;3.07;;;6.70;99.90;;;;;;5116420;27;20471;-68
2022/01/30 09:53:48;;;;;;;5.80;1.17;;;6.70;99.90;;;;;;5115411;28;20409;-67
2022/01/30 09:56:36;;;;;;;8.70;2.27;;;6.80;99.90;;;;;;5116776;27;20437;-68
2022/01/30 09:59:23;;;;;;;7.63;2.40;;;6.80;99.90;;;;;;5115928;28;20425;-67
2022/01/30 10:02:12;;;;;;;1.53;0.87;;;6.80;99.90;;;;;;5116037;28;20503;-67
2022/01/30 10:04:59;;;;;;;4.53;0.87;;;6.90;99.90;;;;;;5118246;28;20437;-68
2022/01/30 10:07:50;;;;;;;18.63;1.70;;;6.90;99.90;;;;;;5116689;28;20549;-68
2022/01/30 10:10:58;;;;;;;9.10;1.67;;;6.90;99.90;;;;;;5114899;28;20422;-68
2022/01/30 10:13:45;;;;;;;15.17;2.80;;;7.00;99.90;;;;;;5117077;28;20418;-69
2022/01/30 10:16:43;;;;;;;0.80;0.70;;;6.90;99.90;;;;;;5115638;28;20866;-68
2022/01/30 10:19:30;;;;;;;6.97;2.37;;;9.90;99.90;;;;;;5119970;27;20424;-68
2022/01/30 10:22:17;;;;;;;6.37;2.43;;;7.00;99.90;;;;;;5136128;27;20861;-68
2022/01/30 10:25:04;;;;;;;6.10;2.67;;;6.90;99.90;;;;;;5139785;27;20420;-68
2022/01/30 10:28:06;;;;;;;8.53;2.43;;;6.90;99.90;;;;;;5138857;27;20448;-68
2022/01/30 10:30:55;;;;;;;8.93;2.60;;;7.00;99.90;;;;;;5144716;27;20419;-69
2022/01/30 10:33:45;;;;;;;11.17;4.10;;;7.00;99.90;;;;;;5151234;27;20933;-68
2022/01/30 10:36:32;;;;;;;8.53;1.90;;;6.90;99.90;;;;;;5151519;27;20973;-68
2022/01/30 10:39:23;;;;;;;4.07;1.77;;;6.90;99.90;;;;;;5152514;27;20764;-68
2022/01/30 10:42:30;;;;;;;4.53;1.27;;;6.90;99.90;;;;;;5146148;27;20819;-67
2022/01/30 10:45:28;;;;;;;0.40;0.40;;;6.90;99.90;;;;;;5136164;27;20423;-67
2022/01/30 10:48:17;;;;;;;14.30;3.20;;;6.90;99.90;;;;;;5135468;27;20448;-68
2022/01/30 10:51:11;;;;;;;17.77;4.43;;;7.00;99.90;;;;;;5135310;27;20424;-67
2022/01/30 10:53:59;;;;;;;13.60;3.13;;;7.00;99.90;;;;;;5135011;27;20427;-68
2022/01/30 10:56:46;;;;;;;2.50;1.20;;;7.00;99.90;;;;;;5133994;27;21047;-68
2022/01/30 10:59:35;;;;;;;5.40;2.37;;;7.10;99.90;;;;;;5134885;27;20837;-67
2022/01/30 11:02:24;;;;;;;4.90;1.60;;;7.10;99.90;;;;;;5134190;27;20551;-67
2022/01/30 11:05:13;;;;;;;5.80;2.57;;;7.10;99.90;;;;;;5134092;27;20430;-68
2022/01/30 11:08:00;;;;;;;11.10;2.60;;;7.00;99.90;;;;;;5135252;27;20451;-68
2022/01/30 11:10:47;;;;;;;8.50;2.10;;;7.10;99.90;;;;;;5134060;27;20778;-67
2022/01/30 11:13:46;;;;;;;6.80;1.80;;;7.00;99.90;;;;;;5135125;27;20932;-69
2022/01/30 11:19:42;;;;;;;2.97;1.53;;;7.00;99.90;;;;;;5134246;27;21005;-68
2022/01/30 11:22:31;;;;;;;10.43;1.80;;;6.90;99.90;;;;;;5133761;27;20452;-67
2022/01/30 11:25:20;;;;;;;6.73;4.60;;;7.10;99.90;;;;;;5134990;27;20474;-69
2022/01/30 11:28:10;;;;;;;18.40;4.17;;;7.10;99.90;;;;;;5133674;27;20487;-69
2022/01/30 11:30:57;;;;;;;15.80;3.20;;;7.20;99.90;;;;;;5133746;27;20479;-68
2022/01/30 11:33:45;;;;;;;2.20;1.50;;;7.20;99.90;;;;;;5134336;27;20960;-68
2022/01/30 11:36:37;;;;;;;18.07;3.47;;;7.30;99.90;;;;;;5134272;27;21059;-69
2022/01/30 11:39:24;;;;;;;4.10;1.70;;;;;;;;;;5134152;27;20454;-68
2022/01/30 11:42:14;;;;;;;16.20;3.13;;;7.40;99.90;;;;;;5134938;27;20456;-68
2022/01/30 11:45:16;;;;;;;11.23;2.53;;;7.50;99.90;;;;;;5134383;27;20424;-68
2022/01/30 11:48:12;;;;;;;17.07;3.03;;;7.40;99.90;;;;;;5134038;27;20980;-68
2022/01/30 11:51:03;;;;;;;15.53;2.17;;;7.30;99.90;;;;;;5134362;27;20896;-68
2022/01/30 11:53:51;;;;;;;2.33;1.67;;;7.20;99.90;;;;;;5134222;27;20905;-68
2022/01/30 11:56:38;;;;;;;11.20;2.47;;;7.20;99.90;;;;;;5133890;27;20478;-68
2022/01/30 11:59:36;;;;;;;15.00;3.50;;;7.20;99.90;;;;;;5133975;27;20454;-69
2022/01/30 12:02:24;;;;;;;5.33;1.40;;;7.20;99.90;;;;;;5133992;28;20972;-68
2022/01/30 12:05:11;;;;;;;4.63;1.37;;;7.10;99.90;;;;;;5134739;28;20435;-68
2022/01/30 12:07:58;;;;;;;9.83;2.13;;;7.10;99.90;;;;;;5134157;28;20443;-69
2022/01/30 12:10:46;;;;;;;0.83;0.80;;;7.10;99.90;;;;;;5134533;28;20446;-69
2022/01/30 12:13:44;;;;;;;6.03;1.87;;;7.10;99.90;;;;;;5135045;28;20821;-68
2022/01/30 12:16:43;;;;;;;6.70;1.93;;;7.10;99.90;;;;;;5135273;28;20449;-69
2022/01/30 12:20:04;;;;;;;7.90;1.90;;;7.00;99.90;;;;;;5130167;28;20432;-69
2022/01/30 12:22:52;;;;;;;6.93;1.23;;;7.00;99.90;;;;;;5117556;28;20457;-69
2022/01/30 12:25:40;;;;;;;6.60;1.90;;;7.00;99.90;;;;;;5116786;28;20429;-68
2022/01/30 12:28:42;;;;;;;0.70;0.47;;;7.00;99.90;;;;;;5117542;27;20449;-69
2022/01/30 12:31:33;;;;;;;1.27;0.83;;;7.30;99.90;;;;;;5116140;28;20851;-69
2022/01/30 12:34:20;;;;;;;8.60;2.00;;;7.10;99.90;;;;;;5115382;28;20425;-69
2022/01/30 12:37:07;;;;;;;3.60;1.83;;;7.20;99.90;;;;;;5115302;28;20445;-69
2022/01/30 12:39:55;;;;;;;2.50;1.37;;;7.10;99.90;;;;;;5114996;28;20926;-69
2022/01/30 12:42:44;;;;;;;4.83;1.97;;;7.10;99.90;;;;;;5115312;27;20828;-69
2022/01/30 12:45:32;;;;;;;2.10;0.80;;;7.10;99.90;;;;;;5114839;28;20426;-69
2022/01/30 12:48:19;;;;;;;4.43;2.93;;;7.10;99.90;;;;;;5114314;28;20485;-69
2022/01/30 12:51:13;;;;;;;0.97;0.40;;;7.30;99.90;;;;;;5115644;28;20487;-70
2022/01/30 12:54:00;;;;;;;7.83;2.60;;;7.20;99.90;;;;;;5117310;28;20854;-68
2022/01/30 12:56:47;;;;;;;0.40;0.40;;;7.30;99.90;;;;;;5115949;28;20437;-69
2022/01/30 12:59:35;;;;;;;11.07;2.87;;;7.30;99.90;;;;;;5118843;28;20467;-68
2022/01/30 13:02:24;;;;;;;8.07;2.50;;;7.30;99.90;;;;;;5120293;28;20460;-70
2022/01/30 13:05:13;;;;;;;9.00;1.83;;;7.30;99.90;;;;;;5118195;28;20836;-69
2022/01/30 13:08:00;;;;;;;8.30;3.70;;;7.30;99.90;;;;;;5118263;28;20437;-67
2022/01/30 13:10:47;;;;;;;0.97;0.60;;;7.50;99.90;;;;;;5117074;28;20467;-69
2022/01/30 13:13:55;;;;;;;8.27;2.10;;;7.50;99.90;;;;;;5117677;28;20499;-68
2022/01/30 13:16:43;;;;;;;7.50;1.87;;;7.50;99.90;;;;;;5117832;27;20436;-68
2022/01/30 13:19:33;;;;;;;12.03;2.70;;;7.60;99.90;;;;;;5121506;27;20424;-68
2022/01/30 13:22:29;;;;;;;8.43;1.87;;;7.70;99.90;;;;;;5135969;27;20980;-68
2022/01/30 13:25:18;;;;;;;7.53;2.30;;;7.70;99.90;;;;;;5137228;27;20429;-68
2022/01/30 13:28:05;;;;;;;8.63;3.20;;;7.60;99.90;;;;;;5137921;27;20445;-69
2022/01/30 13:30:53;;;;;;;1.77;1.67;;;7.60;99.90;;;;;;5137842;27;20424;-69
2022/01/30 13:33:40;;;;;;;2.77;1.33;;;7.60;99.90;;;;;;5138393;27;20423;-68
2022/01/30 13:36:28;;;;;;;0.70;0.70;;;7.70;99.90;;;;;;5136175;27;20469;-68
2022/01/30 13:39:16;;;;;;;3.60;1.13;;;7.80;99.90;;;;;;5135825;27;20474;-68
2022/01/30 13:42:37;;;;;;;2.20;1.43;;;7.90;99.90;;;;;;5135733;27;20527;-69
2022/01/30 13:48:34;;;;;;;12.20;2.33;;;7.70;99.90;;;;;;5137721;27;20497;-68
2022/01/30 13:51:22;;;;;;;7.03;2.17;;;7.60;99.90;;;;;;5142159;27;20917;-70
2022/01/30 13:54:10;;;;;;;2.57;2.37;;;7.60;99.90;;;;;;5139171;27;20486;-69
2022/01/30 13:57:01;;;;;;;7.83;3.40;;;7.50;99.90;;;;;;5136551;27;20582;-69
2022/01/30 13:59:48;;;;;;;3.30;0.53;;;7.50;99.90;;;;;;5135266;27;20417;-68
2022/01/30 14:02:36;;;;;;;3.10;1.60;;;7.40;99.90;;;;;;5135244;27;20559;-68
2022/01/30 14:05:28;;;;;;;6.80;2.10;;;7.40;99.90;;;;;;5135003;27;20420;-68
2022/01/30 14:08:18;;;;;;;8.80;1.57;;;7.40;99.90;;;;;;5135129;27;20925;-69
2022/01/30 14:11:11;;;;;;;11.43;3.37;;;7.30;99.90;;;;;;5135403;27;20420;-69
2022/01/30 14:14:05;;;;;;;5.43;1.70;;;7.10;99.90;;;;;;5135368;27;20413;-68
2022/01/30 14:16:54;;;;;;;1.30;0.70;;;7.10;99.90;;;;;;5136002;27;20452;-69
2022/01/30 14:19:48;;;;;;;13.70;3.20;;;7.10;99.90;;;;;;5128078;27;20421;-68
2022/01/30 14:22:35;;;;;;;10.40;1.87;;;7.20;99.90;;;;;;5115136;28;20965;-68
2022/01/30 14:25:30;;;;;;;7.00;1.80;;;7.10;99.90;;;;;;5115174;28;20452;-69
2022/01/30 14:28:24;;;;;;;8.40;1.93;;;7.10;99.90;;;;;;5115383;27;20503;-70
2022/01/30 14:31:18;;;;;;;7.60;1.70;;;7.10;99.90;;;;;;5115005;28;20463;-69
2022/01/30 14:34:04;;;;;;;16.47;1.87;;;7.00;99.90;;;;;;5114802;28;20487;-69
2022/01/30 14:36:54;;;;;;;14.27;2.40;;;6.90;99.90;;;;;;5115343;28;20464;-68
2022/01/30 14:39:41;;;;;;;6.60;2.17;;;6.90;99.90;;;;;;5114604;28;20798;-69
2022/01/30 14:42:28;;;;;;;1.53;1.43;;;6.90;99.90;;;;;;5115156;28;20449;-68
2022/01/30 14:45:16;;;;;;;3.70;1.33;;;6.80;99.90;;;;;;5114935;28;20471;-69
2022/01/30 14:48:04;;;;;;;17.33;1.07;;;6.80;99.90;;;;;;5115201;28;20487;-69
2022/01/30 14:50:51;;;;;;;7.30;1.90;;;6.80;99.90;;;;;;5114926;28;20455;-69
2022/01/30 14:53:38;;;;;;;14.67;1.83;;;6.80;99.90;;;;;;5114848;28;20437;-69
2022/01/30 14:56:25;;;;;;;7.83;2.13;;;6.70;99.90;;;;;;5116524;28;20425;-69
2022/01/30 14:59:12;;;;;;;12.23;3.57;;;6.60;99.90;;;;;;5115403;28;20429;-69
2022/01/30 15:02:01;;;;;;;19.37;1.83;;;6.70;99.90;;;;;;5115272;27;20465;-68
2022/01/30 15:04:48;;;;;;;0.50;0.50;;;6.60;99.90;;;;;;5116189;27;20483;-70
2022/01/30 15:07:35;;;;;;;1.37;1.27;;;6.60;99.90;;;;;;5114303;28;20473;-69
2022/01/30 15:10:25;;;;;;;4.27;1.33;;;6.60;99.90;;;;;;5113895;28;20470;-69
2022/01/30 15:13:13;;;;;;;4.30;1.00;;;6.50;99.90;;;;;;5113969;28;20422;-69
2022/01/30 15:16:06;;;;;;;2.00;0.50;;;6.50;99.90;;;;;;5114263;28;20480;-69
2022/01/30 15:18:54;;;;;;;5.37;2.03;;;6.50;99.90;;;;;;5114189;28;20479;-69
2022/01/30 15:21:42;;;;;;;5.33;2.57;;;6.50;99.90;;;;;;5133802;27;20424;-68
2022/01/30 15:24:29;;;;;;;0.77;0.73;;;6.60;99.90;;;;;;5134425;27;20408;-69
2022/01/30 15:27:16;;;;;;;2.77;1.23;;;6.40;99.90;;;;;;5137274;27;20485;-68
2022/01/30 15:30:04;;;;;;;10.77;2.00;;;6.40;99.90;;;;;;5138471;27;20412;-69
2022/01/30 15:32:51;;;;;;;3.03;2.03;;;6.40;99.90;;;;;;5148748;27;20447;-68